createdAt,value
2022-08-23T00:03:00.934Z,95885.84
2022-08-23T00:08:07.647Z,95879.97
2022-08-23T00:13:10.430Z,95879.00
2022-08-23T00:18:14.338Z,95877.81
2022-08-23T00:23:18.678Z,95873.75
2022-08-23T00:28:21.451Z,95885.16
2022-08-23T00:33:24.344Z,95878.03
2022-08-23T00:38:34.357Z,95878.19
2022-08-23T00:44:00.096Z,95877.34
2022-08-23T00:49:04.800Z,95885.22
2022-08-23T00:54:11.161Z,95883.78
2022-08-23T00:59:13.954Z,95874.63
2022-08-23T01:04:17.791Z,95885.91
2022-08-23T01:09:23.237Z,95885.25
2022-08-23T01:14:30.971Z,95885.69
2022-08-23T01:19:37.214Z,95880.38
2022-08-23T01:25:07.451Z,95884.69
2022-08-23T01:30:06.905Z,95890.56
2022-08-23T01:35:10.432Z,95890.53
2022-08-23T01:40:16.165Z,95892.53
2022-08-23T01:45:19.305Z,95887.16
2022-08-23T01:50:22.419Z,95894.16
2022-08-23T01:55:26.977Z,95882.84
2022-08-23T02:00:35.558Z,95889.94
2022-08-23T02:05:38.980Z,95907.00
2022-08-23T02:10:43.464Z,95908.41
2022-08-23T02:15:46.904Z,95900.38
2022-08-23T02:20:51.431Z,95908.66
2022-08-23T02:25:56.582Z,95908.16
2022-08-23T02:30:59.388Z,95910.06
2022-08-23T02:36:02.915Z,95916.97
2022-08-23T02:41:07.094Z,95908.06
2022-08-23T02:46:09.989Z,95911.75
2022-08-23T02:51:12.778Z,95907.16
2022-08-23T02:56:21.887Z,95915.69
2022-08-23T03:01:27.254Z,95917.09
2022-08-23T03:06:30.157Z,95918.53
2022-08-23T03:11:34.973Z,95924.97
2022-08-23T03:16:37.850Z,95925.66
2022-08-23T03:21:40.712Z,95927.22
2022-08-23T03:26:47.677Z,95923.16
2022-08-23T03:31:51.579Z,95927.06
2022-08-23T03:36:57.302Z,95924.44
2022-08-23T03:42:01.459Z,95916.81
2022-08-23T03:47:05.925Z,95920.06
2022-08-23T03:52:09.376Z,95930.59
2022-08-23T03:57:13.547Z,95935.78
2022-08-23T04:02:16.528Z,95943.13
2022-08-23T04:07:20.817Z,95945.75
2022-08-23T04:12:24.998Z,95956.34
2022-08-23T04:17:32.164Z,95957.88
2022-08-23T04:22:35.416Z,95957.78
2022-08-23T04:27:39.586Z,95963.78
2022-08-23T04:32:42.397Z,95964.34
2022-08-23T04:37:46.386Z,95968.50
2022-08-23T04:42:50.564Z,95981.38
2022-08-23T04:47:53.345Z,95987.88
2022-08-23T04:52:56.145Z,95990.25
2022-08-23T04:58:00.447Z,95994.38
2022-08-23T05:03:03.325Z,95994.59
2022-08-23T05:08:06.161Z,96004.63
2022-08-23T05:13:10.380Z,96005.53
2022-08-23T05:18:13.535Z,95999.94
2022-08-23T05:23:16.628Z,96012.81
2022-08-23T05:28:23.286Z,96014.91
2022-08-23T05:33:26.353Z,96027.25
2022-08-23T05:38:29.486Z,96029.81
2022-08-23T05:43:34.158Z,96040.91
2022-08-23T05:48:37.985Z,96041.47
2022-08-23T05:53:44.463Z,96035.47
2022-08-23T05:58:50.166Z,96041.38
2022-08-23T06:03:53.337Z,96035.91
2022-08-23T06:08:56.125Z,96038.72
2022-08-23T06:14:03.194Z,96039.34
2022-08-23T06:19:06.973Z,96041.56
2022-08-23T06:24:10.764Z,96040.66
2022-08-23T06:29:17.526Z,96047.63
2022-08-23T06:34:24.305Z,96052.66
2022-08-23T06:39:29.514Z,96062.69
2022-08-23T06:44:35.515Z,96053.63
2022-08-23T06:49:38.316Z,96056.59
2022-08-23T06:54:41.110Z,96065.16
2022-08-23T06:59:45.282Z,96054.75
2022-08-23T07:04:53.754Z,96060.75
2022-08-23T07:09:56.561Z,96065.69
2022-08-23T07:15:00.681Z,96066.59
2022-08-23T07:20:03.703Z,96070.69
2022-08-23T07:25:06.874Z,96077.69
2022-08-23T07:30:12.021Z,96074.91
2022-08-23T07:35:14.817Z,96082.13
2022-08-23T07:40:20.626Z,96074.84
2022-08-23T07:45:25.149Z,96076.31
2022-08-23T07:50:30.605Z,96081.00
2022-08-23T07:55:33.521Z,96084.09
2022-08-23T08:00:38.120Z,96083.28
2022-08-23T08:05:41.058Z,96084.13
2022-08-23T08:10:44.885Z,96081.28
2022-08-23T08:15:49.104Z,96078.66
2022-08-23T08:20:51.935Z,96072.94
2022-08-23T08:26:02.263Z,96079.84
2022-08-23T08:31:07.145Z,96083.69
2022-08-23T08:36:28.132Z,96088.34
2022-08-23T08:42:03.915Z,96077.72
2022-08-23T08:47:18.416Z,96072.59
2022-08-23T08:52:26.194Z,96078.63
2022-08-23T08:57:38.550Z,96077.00
2022-08-23T09:02:45.068Z,96072.44
2022-08-23T09:07:58.651Z,96049.75
2022-08-23T09:13:18.063Z,96074.31
2022-08-23T09:18:24.471Z,96070.13
2022-08-23T09:23:32.292Z,96064.78
2022-08-23T09:28:37.623Z,96062.97
2022-08-23T09:33:43.625Z,96056.91
2022-08-23T09:38:53.631Z,96059.03
2022-08-23T09:43:58.964Z,96048.34
2022-08-23T09:49:24.064Z,96053.91
2022-08-23T09:54:31.990Z,96056.97
2022-08-23T09:59:41.372Z,96064.31
2022-08-23T10:04:59.841Z,96061.97
2022-08-23T10:10:16.981Z,96059.13
2022-08-23T10:15:20.172Z,96050.50
2022-08-23T10:20:36.143Z,96039.69
2022-08-23T10:25:43.533Z,96030.97
2022-08-23T10:30:54.985Z,96014.53
2022-08-23T10:36:07.257Z,96016.28
2022-08-23T10:41:23.170Z,96010.97
2022-08-23T10:46:30.617Z,96009.47
2022-08-23T10:51:40.370Z,96008.91
2022-08-23T10:56:48.832Z,96007.59
2022-08-23T11:01:59.996Z,96001.56
2022-08-23T11:07:17.013Z,95987.25
2022-08-23T11:12:32.088Z,95992.22
2022-08-23T11:17:44.605Z,95989.75
2022-08-23T11:23:14.798Z,95989.66
2022-08-23T11:28:43.882Z,95994.19
2022-08-23T11:33:49.771Z,95989.69
2022-08-23T11:39:07.942Z,95982.88
2022-08-23T11:44:24.642Z,95985.72
2022-08-23T11:49:57.776Z,95980.91
2022-08-23T11:55:24.409Z,95968.31
2022-08-23T12:00:34.473Z,95979.09
2022-08-23T12:06:10.150Z,95985.66
2022-08-23T12:11:18.762Z,95979.19
2022-08-23T12:16:49.623Z,95962.75
2022-08-23T12:21:55.775Z,95972.47
2022-08-23T12:27:09.784Z,95978.84
2022-08-23T12:32:20.483Z,95968.41
2022-08-23T12:37:33.737Z,95961.25
2022-08-23T12:42:40.008Z,95953.66
2022-08-23T12:47:45.505Z,95962.75
2022-08-23T12:52:59.331Z,95966.25
2022-08-23T12:58:04.354Z,95953.91
2022-08-23T13:03:16.408Z,95964.31
2022-08-23T13:08:33.560Z,95953.78
2022-08-23T13:13:41.477Z,95949.50
2022-08-23T13:18:45.878Z,95931.31
2022-08-23T13:23:49.063Z,95931.47
2022-08-23T13:29:04.901Z,95936.03
2022-08-23T13:34:07.674Z,95932.28
2022-08-23T13:39:10.561Z,95929.94
2022-08-23T13:44:19.031Z,95931.03
2022-08-23T13:49:27.242Z,95928.94
2022-08-23T13:54:31.461Z,95920.34
2022-08-23T13:59:38.697Z,95930.78
2022-08-23T14:04:41.935Z,95933.19
2022-08-23T14:09:45.120Z,95919.75
2022-08-23T14:14:50.172Z,95921.28
2022-08-23T14:20:32.924Z,95925.19
2022-08-23T14:25:16.171Z,95924.38
2022-08-23T14:30:30.842Z,95924.63
2022-08-23T14:35:33.717Z,95916.38
2022-08-23T14:40:36.966Z,95915.44
2022-08-23T14:45:41.032Z,95912.94
2022-08-23T14:50:44.713Z,95921.69
2022-08-23T14:56:01.152Z,95928.09
2022-08-23T15:01:14.503Z,95923.84
2022-08-23T15:06:19.041Z,95933.28
2022-08-23T15:16:46.342Z,95923.25
2022-08-23T15:21:49.170Z,95933.41
2022-08-23T15:26:53.553Z,95931.34
2022-08-23T15:31:57.712Z,95910.31
2022-08-23T15:37:01.059Z,95910.81
2022-08-23T15:42:03.877Z,95918.50
2022-08-23T15:47:19.281Z,95914.53
2022-08-23T15:52:22.079Z,95910.69
2022-08-23T15:57:28.607Z,95904.88
2022-08-23T16:02:50.974Z,95905.91
2022-08-23T16:07:57.817Z,95912.91
2022-08-23T16:13:03.707Z,95907.25
2022-08-23T16:18:08.323Z,95914.88
2022-08-23T16:23:11.570Z,95926.69
2022-08-23T16:28:14.385Z,95918.97
2022-08-23T16:33:18.602Z,95916.97
2022-08-23T16:38:21.397Z,95917.84
2022-08-23T16:43:24.237Z,95922.50
2022-08-23T16:48:28.463Z,95927.06
2022-08-23T16:53:32.410Z,95925.28
2022-08-23T16:58:36.652Z,95929.09
2022-08-23T17:03:40.980Z,95925.75
2022-08-23T17:08:43.804Z,95929.16
2022-08-23T17:13:47.433Z,95924.75
2022-08-23T17:18:56.947Z,95929.97
2022-08-23T17:23:59.838Z,95942.06
2022-08-23T17:29:04.575Z,95937.75
2022-08-23T17:34:08.838Z,95937.84
2022-08-23T17:39:14.520Z,95940.19
2022-08-23T17:44:17.724Z,95946.63
2022-08-23T17:49:22.019Z,95953.09
2022-08-23T17:54:24.809Z,95955.69
2022-08-23T17:59:28.725Z,95957.16
2022-08-23T18:04:32.748Z,95972.06
2022-08-23T18:09:38.993Z,95967.72
2022-08-23T18:14:46.801Z,95985.09
2022-08-23T18:19:50.944Z,95978.63
2022-08-23T18:24:54.125Z,95993.00
2022-08-23T18:29:56.934Z,95993.53
2022-08-23T18:35:01.114Z,95996.66
2022-08-23T18:40:09.053Z,96011.09
2022-08-23T18:45:13.850Z,96021.09
2022-08-23T18:50:19.419Z,96011.69
2022-08-23T18:55:22.222Z,96026.31
2022-08-23T19:00:24.985Z,96030.59
2022-08-23T19:05:29.441Z,96028.38
2022-08-23T19:10:45.575Z,96033.44
2022-08-23T19:15:49.356Z,96036.44
2022-08-23T19:20:53.536Z,96035.78
2022-08-23T19:25:56.657Z,96051.13
2022-08-23T19:30:59.455Z,96048.81
2022-08-23T19:36:04.290Z,96047.56
2022-08-23T19:41:07.187Z,96051.63
2022-08-23T19:46:15.915Z,96050.47
2022-08-23T19:51:23.173Z,96057.34
2022-08-23T19:56:26.162Z,96057.69
2022-08-23T20:01:30.044Z,96060.47
2022-08-23T20:06:34.390Z,96061.16
2022-08-23T20:11:37.171Z,96057.53
2022-08-23T20:16:42.222Z,96055.09
2022-08-23T20:21:46.608Z,96075.72
2022-08-23T20:26:50.938Z,96078.41
2022-08-23T20:31:56.704Z,96072.50
2022-08-23T20:37:01.277Z,96069.59
2022-08-23T20:42:04.350Z,96071.47
2022-08-23T20:47:11.271Z,96069.13
2022-08-23T20:52:16.647Z,96080.22
2022-08-23T20:57:19.490Z,96074.19
2022-08-23T21:02:22.305Z,96082.53
2022-08-23T21:07:27.983Z,96072.00
2022-08-23T21:12:30.874Z,96075.09
2022-08-23T21:17:33.644Z,96077.63
2022-08-23T21:22:37.793Z,96076.00
2022-08-23T21:27:40.699Z,96076.09
2022-08-23T21:32:43.444Z,96065.31
2022-08-23T21:37:47.594Z,96061.28
2022-08-23T21:42:50.392Z,96063.41
2022-08-23T21:47:53.227Z,96067.44
2022-08-23T21:52:57.433Z,96074.59
2022-08-23T21:58:00.477Z,96080.41
2022-08-23T22:03:03.620Z,96077.72
2022-08-23T22:08:08.068Z,96083.50
2022-08-23T22:13:10.705Z,96082.91
2022-08-23T22:18:13.506Z,96075.97
2022-08-23T22:23:17.662Z,96078.47
2022-08-23T22:28:20.456Z,96073.81
2022-08-23T22:33:23.242Z,96068.13
2022-08-23T22:38:27.428Z,96061.06
2022-08-23T22:43:30.226Z,96069.63
2022-08-23T22:48:35.473Z,96064.97
2022-08-23T22:53:44.310Z,96068.63
2022-08-23T22:58:47.842Z,96070.56
2022-08-23T23:03:54.052Z,96065.38
2022-08-23T23:08:58.382Z,96068.13
2022-08-23T23:14:00.969Z,96065.66
2022-08-23T23:19:21.275Z,96064.59
2022-08-23T23:24:27.942Z,96063.66
2022-08-23T23:29:32.073Z,96071.59
2022-08-23T23:34:34.933Z,96071.31
2022-08-23T23:39:39.123Z,96068.72
2022-08-23T23:44:41.890Z,96064.78
2022-08-23T23:49:45.019Z,96073.84
2022-08-23T23:54:49.198Z,96072.22
2022-08-23T23:59:53.871Z,96068.53
